sensor_id;sensor_type;location;lat;lon;timestamp;P1;durP1;ratioP1;P2;durP2;ratioP2
71387;SDS011;59201;59.902;10.520;2022-12-07T00:00:48;6.07;;;1.80;;
71387;SDS011;59201;59.902;10.520;2022-12-07T00:03:14;5.65;;;1.60;;
71387;SDS011;59201;59.902;10.520;2022-12-07T00:05:41;6.72;;;1.90;;
71387;SDS011;59201;59.902;10.520;2022-12-07T00:08:07;5.70;;;2.00;;
71387;SDS011;59201;59.902;10.520;2022-12-07T00:10:33;6.82;;;2.00;;
71387;SDS011;59201;59.902;10.520;2022-12-07T00:13:00;8.77;;;1.90;;
71387;SDS011;59201;59.902;10.520;2022-12-07T00:15:26;5.53;;;1.50;;
71387;SDS011;59201;59.902;10.520;2022-12-07T00:17:52;7.43;;;1.92;;
71387;SDS011;59201;59.902;10.520;2022-12-07T00:20:18;6.10;;;2.00;;
71387;SDS011;59201;59.902;10.520;2022-12-07T00:22:44;7.25;;;2.17;;
71387;SDS011;59201;59.902;10.520;2022-12-07T00:25:10;7.83;;;2.20;;
71387;SDS011;59201;59.902;10.520;2022-12-07T00:27:36;5.80;;;1.88;;
71387;SDS011;59201;59.902;10.520;2022-12-07T00:30:02;2.03;;;0.75;;
71387;SDS011;59201;59.902;10.520;2022-12-07T00:32:28;4.22;;;1.58;;
71387;SDS011;59201;59.902;10.520;2022-12-07T00:34:54;6.45;;;2.13;;
71387;SDS011;59201;59.902;10.520;2022-12-07T00:37:20;6.27;;;2.20;;
71387;SDS011;59201;59.902;10.520;2022-12-07T00:39:47;7.18;;;2.40;;
71387;SDS011;59201;59.902;10.520;2022-12-07T00:42:13;5.80;;;2.15;;
71387;SDS011;59201;59.902;10.520;2022-12-07T00:44:39;7.82;;;2.20;;
71387;SDS011;59201;59.902;10.520;2022-12-07T00:47:05;9.13;;;2.20;;
71387;SDS011;59201;59.902;10.520;2022-12-07T00:49:31;6.10;;;1.90;;
71387;SDS011;59201;59.902;10.520;2022-12-07T00:51:57;6.05;;;1.90;;
71387;SDS011;59201;59.902;10.520;2022-12-07T00:54:23;5.55;;;2.10;;
71387;SDS011;59201;59.902;10.520;2022-12-07T00:56:49;8.35;;;2.63;;
71387;SDS011;59201;59.902;10.520;2022-12-07T00:59:15;5.60;;;1.90;;
71387;SDS011;59201;59.902;10.520;2022-12-07T01:01:41;8.30;;;2.10;;
71387;SDS011;59201;59.902;10.520;2022-12-07T01:04:07;6.28;;;1.70;;
71387;SDS011;59201;59.902;10.520;2022-12-07T01:06:33;6.53;;;1.90;;
71387;SDS011;59201;59.902;10.520;2022-12-07T01:09:00;5.97;;;1.95;;
71387;SDS011;59201;59.902;10.520;2022-12-07T01:11:27;7.13;;;2.20;;
71387;SDS011;59201;59.902;10.520;2022-12-07T01:13:54;5.93;;;1.80;;
71387;SDS011;59201;59.902;10.520;2022-12-07T01:16:21;7.78;;;2.28;;
71387;SDS011;59201;59.902;10.520;2022-12-07T01:18:49;6.05;;;1.83;;
71387;SDS011;59201;59.902;10.520;2022-12-07T01:21:23;6.22;;;1.70;;
71387;SDS011;59201;59.902;10.520;2022-12-07T01:23:50;7.13;;;2.30;;
71387;SDS011;59201;59.902;10.520;2022-12-07T01:26:17;5.87;;;2.00;;
71387;SDS011;59201;59.902;10.520;2022-12-07T01:28:44;6.28;;;1.88;;
71387;SDS011;59201;59.902;10.520;2022-12-07T01:31:14;7.15;;;2.00;;
71387;SDS011;59201;59.902;10.520;2022-12-07T01:33:41;7.65;;;2.53;;
71387;SDS011;59201;59.902;10.520;2022-12-07T01:36:12;2.38;;;0.95;;
71387;SDS011;59201;59.902;10.520;2022-12-07T01:38:39;6.83;;;1.97;;
71387;SDS011;59201;59.902;10.520;2022-12-07T01:41:05;6.65;;;2.33;;
71387;SDS011;59201;59.902;10.520;2022-12-07T01:43:32;6.97;;;1.92;;
71387;SDS011;59201;59.902;10.520;2022-12-07T01:45:59;7.40;;;2.10;;
71387;SDS011;59201;59.902;10.520;2022-12-07T01:48:46;6.18;;;2.13;;
71387;SDS011;59201;59.902;10.520;2022-12-07T01:51:11;8.37;;;2.47;;
71387;SDS011;59201;59.902;10.520;2022-12-07T01:53:40;7.82;;;2.30;;
71387;SDS011;59201;59.902;10.520;2022-12-07T01:56:07;6.78;;;2.25;;
71387;SDS011;59201;59.902;10.520;2022-12-07T01:58:34;7.10;;;2.95;;
71387;SDS011;59201;59.902;10.520;2022-12-07T02:01:00;6.47;;;2.10;;
71387;SDS011;59201;59.902;10.520;2022-12-07T02:03:31;7.30;;;2.17;;
71387;SDS011;59201;59.902;10.520;2022-12-07T02:05:58;7.75;;;2.47;;
71387;SDS011;59201;59.902;10.520;2022-12-07T02:08:25;7.82;;;2.35;;
71387;SDS011;59201;59.902;10.520;2022-12-07T02:10:51;7.78;;;2.78;;
71387;SDS011;59201;59.902;10.520;2022-12-07T02:21:15;6.25;;;2.22;;
71387;SDS011;59201;59.902;10.520;2022-12-07T02:23:50;7.10;;;1.98;;
71387;SDS011;59201;59.902;10.520;2022-12-07T02:31:17;6.50;;;2.13;;
71387;SDS011;59201;59.902;10.520;2022-12-07T02:33:45;6.97;;;2.05;;
71387;SDS011;59201;59.902;10.520;2022-12-07T02:36:15;7.10;;;2.00;;
71387;SDS011;59201;59.902;10.520;2022-12-07T02:38:59;6.30;;;1.85;;
71387;SDS011;59201;59.902;10.520;2022-12-07T02:44:03;7.63;;;2.10;;
71387;SDS011;59201;59.902;10.520;2022-12-07T02:46:37;5.50;;;1.77;;
71387;SDS011;59201;59.902;10.520;2022-12-07T02:49:04;6.63;;;1.90;;
71387;SDS011;59201;59.902;10.520;2022-12-07T02:51:31;6.50;;;2.00;;
71387;SDS011;59201;59.902;10.520;2022-12-07T02:53:58;5.50;;;1.67;;
71387;SDS011;59201;59.902;10.520;2022-12-07T03:06:39;5.57;;;1.23;;
71387;SDS011;59201;59.902;10.520;2022-12-07T03:11:42;5.00;;;1.10;;
71387;SDS011;59201;59.902;10.520;2022-12-07T03:14:15;5.30;;;1.10;;
71387;SDS011;59201;59.902;10.520;2022-12-07T03:16:43;3.63;;;0.98;;
71387;SDS011;59201;59.902;10.520;2022-12-07T03:19:18;3.80;;;1.20;;
71387;SDS011;59201;59.902;10.520;2022-12-07T03:21:53;5.50;;;1.00;;
71387;SDS011;59201;59.902;10.520;2022-12-07T03:24:22;3.78;;;1.10;;
71387;SDS011;59201;59.902;10.520;2022-12-07T03:26:59;2.72;;;0.80;;
71387;SDS011;59201;59.902;10.520;2022-12-07T03:29:28;3.28;;;0.82;;
71387;SDS011;59201;59.902;10.520;2022-12-07T03:32:01;4.03;;;1.23;;
71387;SDS011;59201;59.902;10.520;2022-12-07T03:34:30;4.15;;;0.90;;
71387;SDS011;59201;59.902;10.520;2022-12-07T03:37:08;4.43;;;1.00;;
71387;SDS011;59201;59.902;10.520;2022-12-07T03:39:38;4.50;;;1.08;;
71387;SDS011;59201;59.902;10.520;2022-12-07T03:42:08;3.83;;;0.90;;
71387;SDS011;59201;59.902;10.520;2022-12-07T03:44:36;3.70;;;1.00;;
71387;SDS011;59201;59.902;10.520;2022-12-07T03:49:31;3.95;;;1.10;;
71387;SDS011;59201;59.902;10.520;2022-12-07T03:54:48;3.63;;;1.00;;
71387;SDS011;59201;59.902;10.520;2022-12-07T03:57:17;4.40;;;1.10;;
71387;SDS011;59201;59.902;10.520;2022-12-07T03:59:43;3.70;;;0.93;;
71387;SDS011;59201;59.902;10.520;2022-12-07T04:02:10;2.35;;;0.80;;
71387;SDS011;59201;59.902;10.520;2022-12-07T04:04:36;3.15;;;1.02;;
71387;SDS011;59201;59.902;10.520;2022-12-07T04:07:03;4.20;;;0.90;;
71387;SDS011;59201;59.902;10.520;2022-12-07T04:09:29;4.03;;;1.00;;
71387;SDS011;59201;59.902;10.520;2022-12-07T04:11:55;3.05;;;0.90;;
71387;SDS011;59201;59.902;10.520;2022-12-07T04:14:21;4.93;;;0.88;;
71387;SDS011;59201;59.902;10.520;2022-12-07T04:16:47;2.70;;;0.75;;
71387;SDS011;59201;59.902;10.520;2022-12-07T04:19:14;3.63;;;0.90;;
71387;SDS011;59201;59.902;10.520;2022-12-07T04:21:41;4.13;;;1.40;;
71387;SDS011;59201;59.902;10.520;2022-12-07T04:24:07;3.75;;;1.30;;
71387;SDS011;59201;59.902;10.520;2022-12-07T04:26:34;4.57;;;1.13;;
71387;SDS011;59201;59.902;10.520;2022-12-07T04:29:00;4.18;;;0.90;;
71387;SDS011;59201;59.902;10.520;2022-12-07T04:31:26;3.47;;;0.90;;
71387;SDS011;59201;59.902;10.520;2022-12-07T04:33:52;3.67;;;1.00;;
71387;SDS011;59201;59.902;10.520;2022-12-07T04:36:19;5.78;;;1.00;;
71387;SDS011;59201;59.902;10.520;2022-12-07T04:38:46;3.78;;;1.08;;
71387;SDS011;59201;59.902;10.520;2022-12-07T04:41:12;4.45;;;0.90;;
71387;SDS011;59201;59.902;10.520;2022-12-07T04:43:38;3.55;;;0.80;;
71387;SDS011;59201;59.902;10.520;2022-12-07T04:46:04;3.73;;;0.90;;
71387;SDS011;59201;59.902;10.520;2022-12-07T04:48:33;3.85;;;1.00;;
71387;SDS011;59201;59.902;10.520;2022-12-07T04:50:59;5.15;;;1.02;;
71387;SDS011;59201;59.902;10.520;2022-12-07T04:53:25;3.35;;;1.00;;
71387;SDS011;59201;59.902;10.520;2022-12-07T04:55:51;3.88;;;1.00;;
71387;SDS011;59201;59.902;10.520;2022-12-07T04:58:17;4.53;;;1.10;;
71387;SDS011;59201;59.902;10.520;2022-12-07T05:00:43;3.38;;;1.00;;
71387;SDS011;59201;59.902;10.520;2022-12-07T05:03:09;3.97;;;1.13;;
71387;SDS011;59201;59.902;10.520;2022-12-07T05:05:35;3.80;;;1.30;;
71387;SDS011;59201;59.902;10.520;2022-12-07T05:08:08;5.75;;;2.00;;
71387;SDS011;59201;59.902;10.520;2022-12-07T05:10:34;7.70;;;2.90;;
71387;SDS011;59201;59.902;10.520;2022-12-07T05:13:00;5.50;;;2.00;;
71387;SDS011;59201;59.902;10.520;2022-12-07T05:15:26;6.57;;;2.30;;
71387;SDS011;59201;59.902;10.520;2022-12-07T05:17:55;6.35;;;2.10;;
71387;SDS011;59201;59.902;10.520;2022-12-07T05:20:21;6.43;;;2.25;;
71387;SDS011;59201;59.902;10.520;2022-12-07T05:22:47;5.97;;;1.97;;
71387;SDS011;59201;59.902;10.520;2022-12-07T05:25:14;7.05;;;2.20;;
71387;SDS011;59201;59.902;10.520;2022-12-07T05:27:40;4.90;;;1.55;;
71387;SDS011;59201;59.902;10.520;2022-12-07T05:30:06;5.78;;;1.20;;
71387;SDS011;59201;59.902;10.520;2022-12-07T05:32:32;6.63;;;1.38;;
71387;SDS011;59201;59.902;10.520;2022-12-07T05:34:58;11.37;;;4.10;;
71387;SDS011;59201;59.902;10.520;2022-12-07T05:37:24;9.85;;;4.00;;
71387;SDS011;59201;59.902;10.520;2022-12-07T05:39:50;6.75;;;2.60;;
71387;SDS011;59201;59.902;10.520;2022-12-07T05:42:16;7.13;;;2.80;;
71387;SDS011;59201;59.902;10.520;2022-12-07T05:44:43;9.63;;;4.82;;
71387;SDS011;59201;59.902;10.520;2022-12-07T05:47:10;5.43;;;1.80;;
71387;SDS011;59201;59.902;10.520;2022-12-07T05:49:36;5.18;;;1.80;;
71387;SDS011;59201;59.902;10.520;2022-12-07T05:52:03;4.70;;;1.38;;
71387;SDS011;59201;59.902;10.520;2022-12-07T05:54:29;4.75;;;1.30;;
71387;SDS011;59201;59.902;10.520;2022-12-07T05:56:55;4.53;;;1.25;;
71387;SDS011;59201;59.902;10.520;2022-12-07T05:59:21;6.67;;;1.30;;
71387;SDS011;59201;59.902;10.520;2022-12-07T06:01:48;4.38;;;1.30;;
71387;SDS011;59201;59.902;10.520;2022-12-07T06:04:14;4.72;;;1.23;;
71387;SDS011;59201;59.902;10.520;2022-12-07T06:06:40;4.88;;;1.40;;
71387;SDS011;59201;59.902;10.520;2022-12-07T06:09:06;5.57;;;1.70;;
71387;SDS011;59201;59.902;10.520;2022-12-07T06:11:33;8.40;;;1.63;;
71387;SDS011;59201;59.902;10.520;2022-12-07T06:14:17;6.78;;;2.00;;
71387;SDS011;59201;59.902;10.520;2022-12-07T06:16:43;6.05;;;2.00;;
71387;SDS011;59201;59.902;10.520;2022-12-07T06:19:09;9.27;;;3.22;;
71387;SDS011;59201;59.902;10.520;2022-12-07T06:21:35;7.68;;;2.10;;
71387;SDS011;59201;59.902;10.520;2022-12-07T06:24:02;5.70;;;1.70;;
71387;SDS011;59201;59.902;10.520;2022-12-07T06:26:28;5.50;;;1.70;;
71387;SDS011;59201;59.902;10.520;2022-12-07T06:28:54;6.25;;;1.77;;
71387;SDS011;59201;59.902;10.520;2022-12-07T06:31:20;4.90;;;1.50;;
71387;SDS011;59201;59.902;10.520;2022-12-07T06:33:47;5.95;;;1.55;;
71387;SDS011;59201;59.902;10.520;2022-12-07T06:36:13;5.83;;;1.77;;
71387;SDS011;59201;59.902;10.520;2022-12-07T06:38:39;6.88;;;2.05;;
71387;SDS011;59201;59.902;10.520;2022-12-07T06:41:05;4.90;;;1.40;;
71387;SDS011;59201;59.902;10.520;2022-12-07T06:43:31;6.72;;;2.05;;
71387;SDS011;59201;59.902;10.520;2022-12-07T06:45:58;7.30;;;1.90;;
71387;SDS011;59201;59.902;10.520;2022-12-07T06:48:24;5.40;;;1.77;;
71387;SDS011;59201;59.902;10.520;2022-12-07T06:50:50;6.18;;;2.00;;
71387;SDS011;59201;59.902;10.520;2022-12-07T06:53:16;7.05;;;2.30;;
71387;SDS011;59201;59.902;10.520;2022-12-07T06:55:42;9.02;;;2.90;;
71387;SDS011;59201;59.902;10.520;2022-12-07T06:58:08;10.75;;;3.75;;
71387;SDS011;59201;59.902;10.520;2022-12-07T07:00:34;8.60;;;3.30;;
71387;SDS011;59201;59.902;10.520;2022-12-07T07:03:01;6.05;;;1.80;;
71387;SDS011;59201;59.902;10.520;2022-12-07T07:05:27;6.75;;;1.85;;
71387;SDS011;59201;59.902;10.520;2022-12-07T07:07:53;5.93;;;1.90;;
71387;SDS011;59201;59.902;10.520;2022-12-07T07:10:19;5.57;;;1.60;;
71387;SDS011;59201;59.902;10.520;2022-12-07T07:12:45;5.13;;;1.57;;
71387;SDS011;59201;59.902;10.520;2022-12-07T07:15:11;5.78;;;1.85;;
71387;SDS011;59201;59.902;10.520;2022-12-07T07:17:37;5.80;;;1.60;;
71387;SDS011;59201;59.902;10.520;2022-12-07T07:20:04;7.93;;;2.72;;
71387;SDS011;59201;59.902;10.520;2022-12-07T07:22:30;10.63;;;4.47;;
71387;SDS011;59201;59.902;10.520;2022-12-07T07:24:56;14.80;;;6.27;;
71387;SDS011;59201;59.902;10.520;2022-12-07T07:27:22;13.63;;;5.75;;
71387;SDS011;59201;59.902;10.520;2022-12-07T07:29:48;8.88;;;3.58;;
71387;SDS011;59201;59.902;10.520;2022-12-07T07:32:15;9.13;;;3.30;;
71387;SDS011;59201;59.902;10.520;2022-12-07T07:34:41;8.60;;;3.42;;
71387;SDS011;59201;59.902;10.520;2022-12-07T07:37:07;7.10;;;2.60;;
71387;SDS011;59201;59.902;10.520;2022-12-07T07:39:33;7.78;;;2.40;;
71387;SDS011;59201;59.902;10.520;2022-12-07T07:41:59;5.63;;;1.73;;
71387;SDS011;59201;59.902;10.520;2022-12-07T07:44:25;7.57;;;2.35;;
71387;SDS011;59201;59.902;10.520;2022-12-07T07:46:51;7.00;;;2.22;;
71387;SDS011;59201;59.902;10.520;2022-12-07T07:49:17;7.23;;;2.00;;
71387;SDS011;59201;59.902;10.520;2022-12-07T07:51:43;8.48;;;2.45;;
71387;SDS011;59201;59.902;10.520;2022-12-07T07:54:09;6.50;;;2.20;;
71387;SDS011;59201;59.902;10.520;2022-12-07T07:56:35;7.90;;;2.80;;
71387;SDS011;59201;59.902;10.520;2022-12-07T07:59:01;10.30;;;3.60;;
71387;SDS011;59201;59.902;10.520;2022-12-07T08:01:27;7.30;;;3.33;;
71387;SDS011;59201;59.902;10.520;2022-12-07T08:03:53;8.27;;;2.80;;
71387;SDS011;59201;59.902;10.520;2022-12-07T08:06:19;6.53;;;2.75;;
71387;SDS011;59201;59.902;10.520;2022-12-07T08:08:45;8.00;;;2.33;;
71387;SDS011;59201;59.902;10.520;2022-12-07T08:11:12;7.15;;;2.25;;
71387;SDS011;59201;59.902;10.520;2022-12-07T08:13:38;7.77;;;2.57;;
71387;SDS011;59201;59.902;10.520;2022-12-07T08:16:05;8.95;;;2.42;;
71387;SDS011;59201;59.902;10.520;2022-12-07T08:18:34;7.75;;;2.30;;
71387;SDS011;59201;59.902;10.520;2022-12-07T08:21:00;9.48;;;2.60;;
71387;SDS011;59201;59.902;10.520;2022-12-07T08:23:26;9.00;;;3.22;;
71387;SDS011;59201;59.902;10.520;2022-12-07T08:25:52;9.97;;;2.83;;
71387;SDS011;59201;59.902;10.520;2022-12-07T08:28:18;6.80;;;2.90;;
71387;SDS011;59201;59.902;10.520;2022-12-07T08:30:44;8.55;;;3.47;;
71387;SDS011;59201;59.902;10.520;2022-12-07T08:33:11;8.63;;;2.55;;
71387;SDS011;59201;59.902;10.520;2022-12-07T08:35:37;5.40;;;1.40;;
71387;SDS011;59201;59.902;10.520;2022-12-07T08:38:03;8.10;;;1.90;;
71387;SDS011;59201;59.902;10.520;2022-12-07T08:40:29;5.95;;;1.90;;
71387;SDS011;59201;59.902;10.520;2022-12-07T08:42:56;5.97;;;1.48;;
71387;SDS011;59201;59.902;10.520;2022-12-07T08:45:22;6.05;;;1.60;;
71387;SDS011;59201;59.902;10.520;2022-12-07T08:47:59;6.78;;;1.70;;
71387;SDS011;59201;59.902;10.520;2022-12-07T08:50:27;4.83;;;1.57;;
71387;SDS011;59201;59.902;10.520;2022-12-07T08:52:53;7.32;;;1.73;;
71387;SDS011;59201;59.902;10.520;2022-12-07T08:55:20;4.00;;;1.17;;
71387;SDS011;59201;59.902;10.520;2022-12-07T08:57:47;4.35;;;1.20;;
71387;SDS011;59201;59.902;10.520;2022-12-07T09:00:13;4.03;;;1.20;;
71387;SDS011;59201;59.902;10.520;2022-12-07T09:02:39;6.03;;;1.70;;
71387;SDS011;59201;59.902;10.520;2022-12-07T09:05:05;6.90;;;2.30;;
71387;SDS011;59201;59.902;10.520;2022-12-07T09:07:32;6.25;;;2.00;;
71387;SDS011;59201;59.902;10.520;2022-12-07T09:09:59;6.10;;;1.85;;
71387;SDS011;59201;59.902;10.520;2022-12-07T09:12:25;5.63;;;1.88;;
71387;SDS011;59201;59.902;10.520;2022-12-07T09:14:51;8.10;;;2.07;;
71387;SDS011;59201;59.902;10.520;2022-12-07T09:17:17;7.65;;;2.33;;
71387;SDS011;59201;59.902;10.520;2022-12-07T09:19:43;5.80;;;2.00;;
71387;SDS011;59201;59.902;10.520;2022-12-07T09:22:09;4.28;;;1.20;;
71387;SDS011;59201;59.902;10.520;2022-12-07T09:24:35;3.28;;;1.08;;
71387;SDS011;59201;59.902;10.520;2022-12-07T09:27:02;5.00;;;1.17;;
71387;SDS011;59201;59.902;10.520;2022-12-07T09:29:28;6.70;;;1.80;;
71387;SDS011;59201;59.902;10.520;2022-12-07T09:31:54;1.52;;;0.55;;
71387;SDS011;59201;59.902;10.520;2022-12-07T09:34:20;5.82;;;1.63;;
71387;SDS011;59201;59.902;10.520;2022-12-07T09:36:46;4.47;;;1.27;;
71387;SDS011;59201;59.902;10.520;2022-12-07T09:39:12;6.07;;;1.50;;
71387;SDS011;59201;59.902;10.520;2022-12-07T09:41:39;6.05;;;1.83;;
71387;SDS011;59201;59.902;10.520;2022-12-07T09:44:09;5.28;;;1.58;;
71387;SDS011;59201;59.902;10.520;2022-12-07T09:46:37;4.47;;;1.35;;
71387;SDS011;59201;59.902;10.520;2022-12-07T09:49:04;5.80;;;1.98;;
71387;SDS011;59201;59.902;10.520;2022-12-07T09:51:30;4.50;;;1.33;;
71387;SDS011;59201;59.902;10.520;2022-12-07T09:53:57;5.50;;;1.70;;
71387;SDS011;59201;59.902;10.520;2022-12-07T09:56:24;4.75;;;1.65;;
71387;SDS011;59201;59.902;10.520;2022-12-07T09:58:51;6.60;;;1.77;;
71387;SDS011;59201;59.902;10.520;2022-12-07T10:01:20;5.82;;;2.03;;
71387;SDS011;59201;59.902;10.520;2022-12-07T10:03:51;7.50;;;2.40;;
71387;SDS011;59201;59.902;10.520;2022-12-07T10:06:18;6.65;;;1.80;;
71387;SDS011;59201;59.902;10.520;2022-12-07T10:08:44;6.28;;;2.38;;
71387;SDS011;59201;59.902;10.520;2022-12-07T10:11:10;7.15;;;2.38;;
71387;SDS011;59201;59.902;10.520;2022-12-07T10:13:40;4.70;;;1.25;;
71387;SDS011;59201;59.902;10.520;2022-12-07T10:18:56;7.97;;;3.08;;
71387;SDS011;59201;59.902;10.520;2022-12-07T10:21:25;4.97;;;1.77;;
71387;SDS011;59201;59.902;10.520;2022-12-07T10:24:05;2.05;;;0.80;;
71387;SDS011;59201;59.902;10.520;2022-12-07T10:26:32;1.92;;;1.05;;
71387;SDS011;59201;59.902;10.520;2022-12-07T10:28:59;6.03;;;1.57;;
71387;SDS011;59201;59.902;10.520;2022-12-07T10:31:26;4.38;;;1.60;;
71387;SDS011;59201;59.902;10.520;2022-12-07T10:38:52;4.40;;;1.60;;
71387;SDS011;59201;59.902;10.520;2022-12-07T10:41:18;4.23;;;1.30;;
71387;SDS011;59201;59.902;10.520;2022-12-07T10:43:49;6.55;;;1.60;;
71387;SDS011;59201;59.902;10.520;2022-12-07T10:54:09;6.00;;;1.80;;
71387;SDS011;59201;59.902;10.520;2022-12-07T11:09:55;4.97;;;1.40;;
71387;SDS011;59201;59.902;10.520;2022-12-07T11:12:26;4.00;;;1.15;;
71387;SDS011;59201;59.902;10.520;2022-12-07T11:15:18;9.77;;;1.48;;
71387;SDS011;59201;59.902;10.520;2022-12-07T11:17:44;1.42;;;0.52;;
71387;SDS011;59201;59.902;10.520;2022-12-07T11:20:19;3.13;;;1.10;;
71387;SDS011;59201;59.902;10.520;2022-12-07T11:22:55;5.00;;;0.98;;
71387;SDS011;59201;59.902;10.520;2022-12-07T11:30:57;2.40;;;0.98;;
71387;SDS011;59201;59.902;10.520;2022-12-07T11:38:43;4.72;;;1.50;;
71387;SDS011;59201;59.902;10.520;2022-12-07T11:41:12;4.45;;;1.38;;
71387;SDS011;59201;59.902;10.520;2022-12-07T11:43:52;4.20;;;1.15;;
71387;SDS011;59201;59.902;10.520;2022-12-07T11:46:19;8.47;;;2.07;;
71387;SDS011;59201;59.902;10.520;2022-12-07T11:48:51;9.77;;;3.15;;
71387;SDS011;59201;59.902;10.520;2022-12-07T11:51:20;6.25;;;2.38;;
71387;SDS011;59201;59.902;10.520;2022-12-07T11:56:19;5.30;;;1.98;;
71387;SDS011;59201;59.902;10.520;2022-12-07T12:03:42;5.70;;;1.83;;
71387;SDS011;59201;59.902;10.520;2022-12-07T12:06:09;6.90;;;2.00;;
71387;SDS011;59201;59.902;10.520;2022-12-07T12:08:39;4.93;;;1.40;;
71387;SDS011;59201;59.902;10.520;2022-12-07T12:11:25;6.33;;;2.07;;
71387;SDS011;59201;59.902;10.520;2022-12-07T12:16:47;8.10;;;2.42;;
71387;SDS011;59201;59.902;10.520;2022-12-07T12:19:58;8.43;;;1.50;;
71387;SDS011;59201;59.902;10.520;2022-12-07T12:22:10;11.00;;;3.08;;
71387;SDS011;59201;59.902;10.520;2022-12-07T12:24:38;10.43;;;2.60;;
71387;SDS011;59201;59.902;10.520;2022-12-07T12:27:07;8.07;;;2.58;;
71387;SDS011;59201;59.902;10.520;2022-12-07T12:29:38;7.97;;;2.50;;
71387;SDS011;59201;59.902;10.520;2022-12-07T12:32:16;7.05;;;2.30;;
71387;SDS011;59201;59.902;10.520;2022-12-07T12:35:03;8.52;;;2.35;;
71387;SDS011;59201;59.902;10.520;2022-12-07T12:37:46;7.60;;;2.30;;
71387;SDS011;59201;59.902;10.520;2022-12-07T12:50:32;5.20;;;1.47;;
71387;SDS011;59201;59.902;10.520;2022-12-07T12:55:46;6.35;;;1.88;;
71387;SDS011;59201;59.902;10.520;2022-12-07T13:00:44;6.18;;;2.10;;
71387;SDS011;59201;59.902;10.520;2022-12-07T13:03:26;6.67;;;1.97;;
71387;SDS011;59201;59.902;10.520;2022-12-07T13:08:39;6.95;;;2.03;;
71387;SDS011;59201;59.902;10.520;2022-12-07T13:11:17;4.20;;;1.52;;
71387;SDS011;59201;59.902;10.520;2022-12-07T13:13:44;5.82;;;2.67;;
71387;SDS011;59201;59.902;10.520;2022-12-07T13:18:37;7.15;;;2.75;;
71387;SDS011;59201;59.902;10.520;2022-12-07T13:26:21;3.25;;;1.33;;
71387;SDS011;59201;59.902;10.520;2022-12-07T13:28:49;5.17;;;1.90;;
71387;SDS011;59201;59.902;10.520;2022-12-07T13:33:45;6.15;;;2.33;;
71387;SDS011;59201;59.902;10.520;2022-12-07T13:36:17;6.25;;;2.40;;
71387;SDS011;59201;59.902;10.520;2022-12-07T13:38:57;7.15;;;2.17;;
71387;SDS011;59201;59.902;10.520;2022-12-07T13:41:26;3.93;;;1.57;;
71387;SDS011;59201;59.902;10.520;2022-12-07T13:46:19;3.75;;;1.42;;
71387;SDS011;59201;59.902;10.520;2022-12-07T13:48:48;8.05;;;2.05;;
71387;SDS011;59201;59.902;10.520;2022-12-07T13:51:21;6.40;;;2.10;;
71387;SDS011;59201;59.902;10.520;2022-12-07T13:53:49;6.33;;;2.40;;
71387;SDS011;59201;59.902;10.520;2022-12-07T13:56:18;7.50;;;2.70;;
71387;SDS011;59201;59.902;10.520;2022-12-07T13:58:47;8.13;;;2.47;;
71387;SDS011;59201;59.902;10.520;2022-12-07T14:01:13;8.93;;;2.67;;
71387;SDS011;59201;59.902;10.520;2022-12-07T14:03:39;7.57;;;2.28;;
71387;SDS011;59201;59.902;10.520;2022-12-07T14:06:10;7.07;;;2.33;;
71387;SDS011;59201;59.902;10.520;2022-12-07T14:08:39;8.27;;;3.13;;
71387;SDS011;59201;59.902;10.520;2022-12-07T14:11:05;7.10;;;2.38;;
71387;SDS011;59201;59.902;10.520;2022-12-07T14:13:37;9.13;;;2.25;;
71387;SDS011;59201;59.902;10.520;2022-12-07T14:18:52;9.73;;;3.07;;
71387;SDS011;59201;59.902;10.520;2022-12-07T14:21:20;6.18;;;1.92;;
71387;SDS011;59201;59.902;10.520;2022-12-07T14:24:09;7.63;;;1.55;;
71387;SDS011;59201;59.902;10.520;2022-12-07T14:26:36;5.00;;;1.70;;
71387;SDS011;59201;59.902;10.520;2022-12-07T14:29:22;4.50;;;1.38;;
71387;SDS011;59201;59.902;10.520;2022-12-07T14:31:48;7.07;;;1.40;;
71387;SDS011;59201;59.902;10.520;2022-12-07T14:34:15;4.68;;;1.50;;
71387;SDS011;59201;59.902;10.520;2022-12-07T14:36:41;5.80;;;2.05;;
71387;SDS011;59201;59.902;10.520;2022-12-07T14:39:07;6.18;;;2.00;;
71387;SDS011;59201;59.902;10.520;2022-12-07T14:41:33;7.47;;;2.67;;
71387;SDS011;59201;59.902;10.520;2022-12-07T14:44:18;8.27;;;2.70;;
71387;SDS011;59201;59.902;10.520;2022-12-07T14:46:45;7.40;;;2.35;;
71387;SDS011;59201;59.902;10.520;2022-12-07T14:49:12;5.43;;;1.90;;
71387;SDS011;59201;59.902;10.520;2022-12-07T14:51:38;6.80;;;2.08;;
71387;SDS011;59201;59.902;10.520;2022-12-07T14:54:05;7.15;;;2.38;;
71387;SDS011;59201;59.902;10.520;2022-12-07T14:56:32;9.37;;;2.30;;
71387;SDS011;59201;59.902;10.520;2022-12-07T14:58:58;11.35;;;3.30;;
71387;SDS011;59201;59.902;10.520;2022-12-07T15:01:24;11.68;;;4.00;;
71387;SDS011;59201;59.902;10.520;2022-12-07T15:03:50;11.43;;;3.83;;
71387;SDS011;59201;59.902;10.520;2022-12-07T15:06:17;11.80;;;4.43;;
71387;SDS011;59201;59.902;10.520;2022-12-07T15:08:43;20.53;;;9.27;;
71387;SDS011;59201;59.902;10.520;2022-12-07T15:11:12;12.65;;;5.32;;
71387;SDS011;59201;59.902;10.520;2022-12-07T15:13:39;10.38;;;4.10;;
71387;SDS011;59201;59.902;10.520;2022-12-07T15:16:23;8.65;;;3.25;;
71387;SDS011;59201;59.902;10.520;2022-12-07T15:18:49;14.93;;;5.65;;
71387;SDS011;59201;59.902;10.520;2022-12-07T15:21:16;13.50;;;4.87;;
71387;SDS011;59201;59.902;10.520;2022-12-07T15:23:48;13.40;;;4.82;;
71387;SDS011;59201;59.902;10.520;2022-12-07T15:26:14;12.15;;;4.30;;
71387;SDS011;59201;59.902;10.520;2022-12-07T15:28:41;10.68;;;4.00;;
71387;SDS011;59201;59.902;10.520;2022-12-07T15:31:11;10.75;;;3.90;;
71387;SDS011;59201;59.902;10.520;2022-12-07T15:33:37;11.83;;;4.43;;
71387;SDS011;59201;59.902;10.520;2022-12-07T15:36:03;10.52;;;4.10;;
71387;SDS011;59201;59.902;10.520;2022-12-07T15:38:29;11.15;;;4.47;;
71387;SDS011;59201;59.902;10.520;2022-12-07T15:40:56;11.50;;;5.20;;
71387;SDS011;59201;59.902;10.520;2022-12-07T15:43:22;8.80;;;3.13;;
71387;SDS011;59201;59.902;10.520;2022-12-07T15:46:07;10.00;;;4.70;;
71387;SDS011;59201;59.902;10.520;2022-12-07T15:48:33;13.68;;;6.32;;
71387;SDS011;59201;59.902;10.520;2022-12-07T15:51:03;13.15;;;4.60;;
71387;SDS011;59201;59.902;10.520;2022-12-07T15:53:29;9.25;;;4.20;;
71387;SDS011;59201;59.902;10.520;2022-12-07T15:55:55;7.43;;;3.50;;
71387;SDS011;59201;59.902;10.520;2022-12-07T15:58:21;6.77;;;2.77;;
71387;SDS011;59201;59.902;10.520;2022-12-07T16:00:47;8.75;;;2.60;;
71387;SDS011;59201;59.902;10.520;2022-12-07T16:03:13;6.80;;;2.88;;
71387;SDS011;59201;59.902;10.520;2022-12-07T16:05:39;9.18;;;3.30;;
71387;SDS011;59201;59.902;10.520;2022-12-07T16:08:05;7.72;;;2.58;;
71387;SDS011;59201;59.902;10.520;2022-12-07T16:10:32;9.43;;;2.97;;
71387;SDS011;59201;59.902;10.520;2022-12-07T16:12:58;8.60;;;2.88;;
71387;SDS011;59201;59.902;10.520;2022-12-07T16:15:24;10.45;;;3.05;;
71387;SDS011;59201;59.902;10.520;2022-12-07T16:17:52;14.88;;;5.38;;
71387;SDS011;59201;59.902;10.520;2022-12-07T16:20:18;14.23;;;5.15;;
71387;SDS011;59201;59.902;10.520;2022-12-07T16:22:44;11.40;;;3.60;;
71387;SDS011;59201;59.902;10.520;2022-12-07T16:25:28;9.30;;;3.08;;
71387;SDS011;59201;59.902;10.520;2022-12-07T16:27:56;15.20;;;5.78;;
71387;SDS011;59201;59.902;10.520;2022-12-07T16:30:22;18.88;;;6.15;;
71387;SDS011;59201;59.902;10.520;2022-12-07T16:32:48;15.90;;;6.45;;
71387;SDS011;59201;59.902;10.520;2022-12-07T16:35:14;13.03;;;4.77;;